sensor_id;sensor_type;location;lat;lon;timestamp;P1;durP1;ratioP1;P2;durP2;ratioP2
75216;SDS011;63800;51.972;5.682;2023-07-13T00:00:33;6.55;;;3.05;;
75216;SDS011;63800;51.972;5.682;2023-07-13T00:02:59;6.47;;;3.17;;
75216;SDS011;63800;51.972;5.682;2023-07-13T00:05:24;5.72;;;3.30;;
75216;SDS011;63800;51.972;5.682;2023-07-13T00:07:50;8.65;;;3.28;;
75216;SDS011;63800;51.972;5.682;2023-07-13T00:10:16;5.47;;;3.45;;
75216;SDS011;63800;51.972;5.682;2023-07-13T00:12:43;7.80;;;2.88;;
75216;SDS011;63800;51.972;5.682;2023-07-13T00:15:13;7.30;;;2.58;;
75216;SDS011;63800;51.972;5.682;2023-07-13T00:17:41;5.82;;;2.33;;
75216;SDS011;63800;51.972;5.682;2023-07-13T00:20:09;4.47;;;2.40;;
75216;SDS011;63800;51.972;5.682;2023-07-13T00:22:35;6.00;;;2.60;;
75216;SDS011;63800;51.972;5.682;2023-07-13T00:25:01;5.65;;;2.13;;
75216;SDS011;63800;51.972;5.682;2023-07-13T00:27:26;9.25;;;2.70;;
75216;SDS011;63800;51.972;5.682;2023-07-13T00:29:52;5.45;;;2.50;;
75216;SDS011;63800;51.972;5.682;2023-07-13T00:32:17;10.45;;;2.55;;
75216;SDS011;63800;51.972;5.682;2023-07-13T00:34:43;6.43;;;2.83;;
75216;SDS011;63800;51.972;5.682;2023-07-13T00:37:09;4.13;;;2.25;;
75216;SDS011;63800;51.972;5.682;2023-07-13T00:39:34;4.40;;;2.33;;
75216;SDS011;63800;51.972;5.682;2023-07-13T00:42:01;7.55;;;2.88;;
75216;SDS011;63800;51.972;5.682;2023-07-13T00:44:27;6.93;;;3.17;;
75216;SDS011;63800;51.972;5.682;2023-07-13T00:46:53;5.43;;;2.75;;
75216;SDS011;63800;51.972;5.682;2023-07-13T00:49:22;10.10;;;3.60;;
75216;SDS011;63800;51.972;5.682;2023-07-13T00:51:53;5.82;;;2.90;;
75216;SDS011;63800;51.972;5.682;2023-07-13T00:54:27;4.75;;;2.50;;
75216;SDS011;63800;51.972;5.682;2023-07-13T00:57:00;5.13;;;2.75;;
75216;SDS011;63800;51.972;5.682;2023-07-13T00:59:29;6.32;;;2.80;;
75216;SDS011;63800;51.972;5.682;2023-07-13T01:01:56;6.93;;;2.97;;
75216;SDS011;63800;51.972;5.682;2023-07-13T01:04:23;4.30;;;2.70;;
75216;SDS011;63800;51.972;5.682;2023-07-13T01:06:52;9.57;;;3.22;;
75216;SDS011;63800;51.972;5.682;2023-07-13T01:09:19;4.72;;;3.42;;
75216;SDS011;63800;51.972;5.682;2023-07-13T01:11:45;8.95;;;3.60;;
75216;SDS011;63800;51.972;5.682;2023-07-13T01:14:10;6.07;;;3.55;;
75216;SDS011;63800;51.972;5.682;2023-07-13T01:16:36;7.57;;;4.38;;
75216;SDS011;63800;51.972;5.682;2023-07-13T01:21:54;8.68;;;3.25;;
75216;SDS011;63800;51.972;5.682;2023-07-13T01:24:20;7.18;;;3.45;;
75216;SDS011;63800;51.972;5.682;2023-07-13T01:26:46;7.45;;;3.30;;
75216;SDS011;63800;51.972;5.682;2023-07-13T01:29:11;8.85;;;3.60;;
75216;SDS011;63800;51.972;5.682;2023-07-13T01:31:36;7.13;;;3.20;;
75216;SDS011;63800;51.972;5.682;2023-07-13T01:34:02;6.55;;;3.40;;
75216;SDS011;63800;51.972;5.682;2023-07-13T01:36:27;7.30;;;3.78;;
75216;SDS011;63800;51.972;5.682;2023-07-13T01:38:53;12.25;;;5.55;;
75216;SDS011;63800;51.972;5.682;2023-07-13T01:41:18;10.38;;;5.28;;
75216;SDS011;63800;51.972;5.682;2023-07-13T01:43:44;7.15;;;3.10;;
75216;SDS011;63800;51.972;5.682;2023-07-13T01:46:09;5.53;;;2.75;;
75216;SDS011;63800;51.972;5.682;2023-07-13T01:48:34;4.13;;;2.40;;
75216;SDS011;63800;51.972;5.682;2023-07-13T01:51:00;8.68;;;3.00;;
75216;SDS011;63800;51.972;5.682;2023-07-13T01:53:25;8.45;;;3.47;;
75216;SDS011;63800;51.972;5.682;2023-07-13T01:55:51;9.35;;;3.70;;
75216;SDS011;63800;51.972;5.682;2023-07-13T01:58:17;5.90;;;3.53;;
75216;SDS011;63800;51.972;5.682;2023-07-13T02:00:43;8.40;;;3.13;;
75216;SDS011;63800;51.972;5.682;2023-07-13T02:03:08;6.15;;;2.92;;
75216;SDS011;63800;51.972;5.682;2023-07-13T02:05:34;5.70;;;2.90;;
75216;SDS011;63800;51.972;5.682;2023-07-13T02:08:00;7.60;;;2.95;;
75216;SDS011;63800;51.972;5.682;2023-07-13T02:10:25;7.32;;;3.40;;
75216;SDS011;63800;51.972;5.682;2023-07-13T02:12:50;7.97;;;3.60;;
75216;SDS011;63800;51.972;5.682;2023-07-13T02:15:16;7.68;;;4.18;;
75216;SDS011;63800;51.972;5.682;2023-07-13T02:17:42;11.77;;;5.28;;
75216;SDS011;63800;51.972;5.682;2023-07-13T02:20:08;8.63;;;5.00;;
75216;SDS011;63800;51.972;5.682;2023-07-13T02:22:34;9.20;;;5.20;;
75216;SDS011;63800;51.972;5.682;2023-07-13T02:25:00;8.63;;;4.70;;
75216;SDS011;63800;51.972;5.682;2023-07-13T02:27:25;9.60;;;4.25;;
75216;SDS011;63800;51.972;5.682;2023-07-13T02:29:51;9.10;;;4.47;;
75216;SDS011;63800;51.972;5.682;2023-07-13T02:32:17;9.73;;;4.30;;
75216;SDS011;63800;51.972;5.682;2023-07-13T02:34:43;10.52;;;5.57;;
75216;SDS011;63800;51.972;5.682;2023-07-13T02:37:08;9.98;;;5.68;;
75216;SDS011;63800;51.972;5.682;2023-07-13T02:39:33;11.10;;;5.75;;
75216;SDS011;63800;51.972;5.682;2023-07-13T02:41:59;9.13;;;4.85;;
75216;SDS011;63800;51.972;5.682;2023-07-13T02:44:25;9.63;;;5.32;;
75216;SDS011;63800;51.972;5.682;2023-07-13T02:46:51;12.63;;;5.40;;
75216;SDS011;63800;51.972;5.682;2023-07-13T02:49:17;13.57;;;7.00;;
75216;SDS011;63800;51.972;5.682;2023-07-13T02:51:42;20.05;;;8.05;;
75216;SDS011;63800;51.972;5.682;2023-07-13T02:54:08;10.27;;;6.20;;
75216;SDS011;63800;51.972;5.682;2023-07-13T02:56:35;10.55;;;5.47;;
75216;SDS011;63800;51.972;5.682;2023-07-13T02:59:00;11.13;;;5.32;;
75216;SDS011;63800;51.972;5.682;2023-07-13T03:01:26;11.85;;;5.55;;
75216;SDS011;63800;51.972;5.682;2023-07-13T03:03:51;9.77;;;5.85;;
75216;SDS011;63800;51.972;5.682;2023-07-13T03:06:17;13.43;;;7.13;;
75216;SDS011;63800;51.972;5.682;2023-07-13T03:08:44;14.48;;;7.78;;
75216;SDS011;63800;51.972;5.682;2023-07-13T03:11:11;16.17;;;9.70;;
75216;SDS011;63800;51.972;5.682;2023-07-13T03:13:39;17.05;;;11.20;;
75216;SDS011;63800;51.972;5.682;2023-07-13T03:16:05;16.83;;;9.57;;
75216;SDS011;63800;51.972;5.682;2023-07-13T03:18:32;14.75;;;8.15;;
75216;SDS011;63800;51.972;5.682;2023-07-13T03:20:57;11.07;;;5.97;;
75216;SDS011;63800;51.972;5.682;2023-07-13T03:23:24;10.68;;;5.25;;
75216;SDS011;63800;51.972;5.682;2023-07-13T03:25:50;11.23;;;5.43;;
75216;SDS011;63800;51.972;5.682;2023-07-13T03:28:15;10.05;;;4.82;;
75216;SDS011;63800;51.972;5.682;2023-07-13T03:30:41;9.60;;;4.32;;
75216;SDS011;63800;51.972;5.682;2023-07-13T03:33:07;11.18;;;5.10;;
75216;SDS011;63800;51.972;5.682;2023-07-13T03:35:33;13.60;;;5.90;;
75216;SDS011;63800;51.972;5.682;2023-07-13T03:37:59;9.18;;;5.18;;
75216;SDS011;63800;51.972;5.682;2023-07-13T03:40:25;11.25;;;5.20;;
75216;SDS011;63800;51.972;5.682;2023-07-13T03:42:52;10.50;;;4.72;;
75216;SDS011;63800;51.972;5.682;2023-07-13T03:45:18;10.45;;;5.72;;
75216;SDS011;63800;51.972;5.682;2023-07-13T03:47:44;11.57;;;5.50;;
75216;SDS011;63800;51.972;5.682;2023-07-13T03:50:10;10.25;;;5.30;;
75216;SDS011;63800;51.972;5.682;2023-07-13T03:52:36;12.75;;;5.60;;
75216;SDS011;63800;51.972;5.682;2023-07-13T03:55:01;9.02;;;5.13;;
75216;SDS011;63800;51.972;5.682;2023-07-13T03:57:27;10.50;;;5.18;;
75216;SDS011;63800;51.972;5.682;2023-07-13T03:59:52;12.68;;;4.93;;
75216;SDS011;63800;51.972;5.682;2023-07-13T04:02:18;14.43;;;4.82;;
75216;SDS011;63800;51.972;5.682;2023-07-13T04:04:43;10.70;;;4.72;;
75216;SDS011;63800;51.972;5.682;2023-07-13T04:07:09;11.52;;;4.78;;
75216;SDS011;63800;51.972;5.682;2023-07-13T04:09:35;10.98;;;5.15;;
75216;SDS011;63800;51.972;5.682;2023-07-13T04:12:01;11.55;;;5.07;;
75216;SDS011;63800;51.972;5.682;2023-07-13T04:14:26;11.40;;;5.43;;
75216;SDS011;63800;51.972;5.682;2023-07-13T04:16:52;11.05;;;5.20;;
75216;SDS011;63800;51.972;5.682;2023-07-13T04:19:19;9.10;;;4.60;;
75216;SDS011;63800;51.972;5.682;2023-07-13T04:21:44;10.73;;;5.00;;
75216;SDS011;63800;51.972;5.682;2023-07-13T04:24:10;16.40;;;6.07;;
75216;SDS011;63800;51.972;5.682;2023-07-13T04:26:36;11.07;;;5.78;;
75216;SDS011;63800;51.972;5.682;2023-07-13T04:29:03;11.00;;;6.05;;
75216;SDS011;63800;51.972;5.682;2023-07-13T04:31:29;9.70;;;5.35;;
75216;SDS011;63800;51.972;5.682;2023-07-13T04:33:55;11.73;;;5.57;;
75216;SDS011;63800;51.972;5.682;2023-07-13T04:36:20;11.70;;;5.70;;
75216;SDS011;63800;51.972;5.682;2023-07-13T04:38:46;14.05;;;5.90;;
75216;SDS011;63800;51.972;5.682;2023-07-13T04:41:12;10.02;;;5.50;;
75216;SDS011;63800;51.972;5.682;2023-07-13T04:43:38;15.45;;;6.80;;
75216;SDS011;63800;51.972;5.682;2023-07-13T04:46:06;13.48;;;5.75;;
75216;SDS011;63800;51.972;5.682;2023-07-13T04:48:33;13.57;;;6.20;;
75216;SDS011;63800;51.972;5.682;2023-07-13T04:50:59;13.82;;;6.80;;
75216;SDS011;63800;51.972;5.682;2023-07-13T04:53:25;12.68;;;6.75;;
75216;SDS011;63800;51.972;5.682;2023-07-13T04:55:51;11.02;;;6.10;;
75216;SDS011;63800;51.972;5.682;2023-07-13T04:58:17;11.30;;;6.28;;
75216;SDS011;63800;51.972;5.682;2023-07-13T05:00:43;10.55;;;5.95;;
75216;SDS011;63800;51.972;5.682;2023-07-13T05:03:09;14.15;;;5.40;;
75216;SDS011;63800;51.972;5.682;2023-07-13T05:05:34;12.52;;;5.72;;
75216;SDS011;63800;51.972;5.682;2023-07-13T05:08:00;8.95;;;5.35;;
75216;SDS011;63800;51.972;5.682;2023-07-13T05:10:25;15.20;;;6.60;;
75216;SDS011;63800;51.972;5.682;2023-07-13T05:12:51;13.98;;;6.85;;
75216;SDS011;63800;51.972;5.682;2023-07-13T05:15:17;15.00;;;7.18;;
75216;SDS011;63800;51.972;5.682;2023-07-13T05:17:46;13.45;;;6.80;;
75216;SDS011;63800;51.972;5.682;2023-07-13T05:20:15;15.18;;;7.38;;
75216;SDS011;63800;51.972;5.682;2023-07-13T05:22:42;11.95;;;6.47;;
75216;SDS011;63800;51.972;5.682;2023-07-13T05:25:08;15.45;;;7.30;;
75216;SDS011;63800;51.972;5.682;2023-07-13T05:27:34;19.25;;;7.40;;
75216;SDS011;63800;51.972;5.682;2023-07-13T05:30:00;13.85;;;7.15;;
75216;SDS011;63800;51.972;5.682;2023-07-13T05:32:26;13.75;;;7.43;;
75216;SDS011;63800;51.972;5.682;2023-07-13T05:34:52;14.20;;;7.97;;
75216;SDS011;63800;51.972;5.682;2023-07-13T05:37:17;18.20;;;8.40;;
75216;SDS011;63800;51.972;5.682;2023-07-13T05:39:43;16.00;;;8.50;;
75216;SDS011;63800;51.972;5.682;2023-07-13T05:42:08;21.95;;;9.20;;
75216;SDS011;63800;51.972;5.682;2023-07-13T05:44:34;19.65;;;9.57;;
75216;SDS011;63800;51.972;5.682;2023-07-13T05:47:00;19.98;;;9.15;;
75216;SDS011;63800;51.972;5.682;2023-07-13T05:49:25;20.23;;;9.02;;
75216;SDS011;63800;51.972;5.682;2023-07-13T05:51:50;22.83;;;9.93;;
75216;SDS011;63800;51.972;5.682;2023-07-13T05:54:16;19.20;;;9.30;;
75216;SDS011;63800;51.972;5.682;2023-07-13T05:56:41;18.50;;;8.65;;
75216;SDS011;63800;51.972;5.682;2023-07-13T05:59:07;19.83;;;9.68;;
75216;SDS011;63800;51.972;5.682;2023-07-13T06:01:32;22.15;;;10.95;;
75216;SDS011;63800;51.972;5.682;2023-07-13T06:03:58;24.05;;;11.10;;
75216;SDS011;63800;51.972;5.682;2023-07-13T06:06:23;22.35;;;11.35;;
75216;SDS011;63800;51.972;5.682;2023-07-13T06:08:49;22.73;;;12.23;;
75216;SDS011;63800;51.972;5.682;2023-07-13T06:11:17;26.70;;;13.10;;
75216;SDS011;63800;51.972;5.682;2023-07-13T06:13:43;28.25;;;14.20;;
75216;SDS011;63800;51.972;5.682;2023-07-13T06:16:09;26.40;;;14.23;;
75216;SDS011;63800;51.972;5.682;2023-07-13T06:18:36;24.23;;;13.02;;
75216;SDS011;63800;51.972;5.682;2023-07-13T06:23:34;26.92;;;14.82;;
75216;SDS011;63800;51.972;5.682;2023-07-13T06:25:59;28.00;;;14.68;;
75216;SDS011;63800;51.972;5.682;2023-07-13T06:28:25;24.30;;;15.02;;
75216;SDS011;63800;51.972;5.682;2023-07-13T06:30:50;27.25;;;14.55;;
75216;SDS011;63800;51.972;5.682;2023-07-13T06:33:16;35.25;;;15.45;;
75216;SDS011;63800;51.972;5.682;2023-07-13T06:35:42;28.95;;;15.65;;
75216;SDS011;63800;51.972;5.682;2023-07-13T06:38:07;29.25;;;14.93;;
75216;SDS011;63800;51.972;5.682;2023-07-13T06:40:33;29.30;;;15.20;;
75216;SDS011;63800;51.972;5.682;2023-07-13T06:42:58;31.95;;;15.65;;
75216;SDS011;63800;51.972;5.682;2023-07-13T06:45:24;24.08;;;14.43;;
75216;SDS011;63800;51.972;5.682;2023-07-13T06:47:49;34.83;;;17.00;;
75216;SDS011;63800;51.972;5.682;2023-07-13T06:50:15;28.42;;;16.65;;
75216;SDS011;63800;51.972;5.682;2023-07-13T06:52:40;29.55;;;15.73;;
75216;SDS011;63800;51.972;5.682;2023-07-13T06:55:06;29.75;;;15.70;;
75216;SDS011;63800;51.972;5.682;2023-07-13T06:57:32;29.08;;;16.00;;
75216;SDS011;63800;51.972;5.682;2023-07-13T06:59:57;28.45;;;14.45;;
75216;SDS011;63800;51.972;5.682;2023-07-13T07:02:23;26.20;;;14.55;;
75216;SDS011;63800;51.972;5.682;2023-07-13T07:04:48;24.80;;;16.42;;
75216;SDS011;63800;51.972;5.682;2023-07-13T07:07:14;29.60;;;16.35;;
75216;SDS011;63800;51.972;5.682;2023-07-13T07:09:40;30.90;;;15.93;;
75216;SDS011;63800;51.972;5.682;2023-07-13T07:12:05;33.45;;;16.80;;
75216;SDS011;63800;51.972;5.682;2023-07-13T07:14:31;31.45;;;15.65;;
75216;SDS011;63800;51.972;5.682;2023-07-13T07:16:56;28.05;;;15.55;;
75216;SDS011;63800;51.972;5.682;2023-07-13T07:19:23;30.02;;;15.35;;
75216;SDS011;63800;51.972;5.682;2023-07-13T07:21:49;30.20;;;15.75;;
75216;SDS011;63800;51.972;5.682;2023-07-13T07:24:14;27.33;;;14.95;;
75216;SDS011;63800;51.972;5.682;2023-07-13T07:26:40;29.02;;;16.08;;
75216;SDS011;63800;51.972;5.682;2023-07-13T07:29:06;29.13;;;16.08;;
75216;SDS011;63800;51.972;5.682;2023-07-13T07:31:31;28.52;;;15.43;;
75216;SDS011;63800;51.972;5.682;2023-07-13T07:33:57;23.42;;;14.55;;
75216;SDS011;63800;51.972;5.682;2023-07-13T07:36:22;26.83;;;15.27;;
75216;SDS011;63800;51.972;5.682;2023-07-13T07:38:48;30.05;;;16.20;;
75216;SDS011;63800;51.972;5.682;2023-07-13T07:41:13;22.67;;;15.50;;
75216;SDS011;63800;51.972;5.682;2023-07-13T07:43:39;26.38;;;15.90;;
75216;SDS011;63800;51.972;5.682;2023-07-13T07:46:04;28.58;;;16.83;;
75216;SDS011;63800;51.972;5.682;2023-07-13T07:48:30;26.55;;;16.50;;
75216;SDS011;63800;51.972;5.682;2023-07-13T07:50:56;24.65;;;16.00;;
75216;SDS011;63800;51.972;5.682;2023-07-13T07:53:22;26.63;;;14.38;;
75216;SDS011;63800;51.972;5.682;2023-07-13T07:55:47;24.02;;;14.38;;
75216;SDS011;63800;51.972;5.682;2023-07-13T07:58:13;27.65;;;14.48;;
75216;SDS011;63800;51.972;5.682;2023-07-13T08:00:38;26.85;;;15.73;;
75216;SDS011;63800;51.972;5.682;2023-07-13T08:03:04;26.67;;;15.30;;
75216;SDS011;63800;51.972;5.682;2023-07-13T08:05:29;23.52;;;13.57;;
75216;SDS011;63800;51.972;5.682;2023-07-13T08:07:54;25.77;;;14.45;;
75216;SDS011;63800;51.972;5.682;2023-07-13T08:10:20;25.13;;;14.13;;
75216;SDS011;63800;51.972;5.682;2023-07-13T08:12:46;25.42;;;14.73;;
75216;SDS011;63800;51.972;5.682;2023-07-13T08:15:15;25.80;;;14.98;;
75216;SDS011;63800;51.972;5.682;2023-07-13T08:17:45;24.77;;;14.75;;
75216;SDS011;63800;51.972;5.682;2023-07-13T08:20:11;24.08;;;13.85;;
75216;SDS011;63800;51.972;5.682;2023-07-13T08:22:36;23.27;;;13.77;;
75216;SDS011;63800;51.972;5.682;2023-07-13T08:25:02;20.63;;;13.52;;
75216;SDS011;63800;51.972;5.682;2023-07-13T08:27:28;20.63;;;13.55;;
75216;SDS011;63800;51.972;5.682;2023-07-13T08:29:54;19.90;;;12.50;;
75216;SDS011;63800;51.972;5.682;2023-07-13T08:32:20;21.48;;;12.32;;
75216;SDS011;63800;51.972;5.682;2023-07-13T08:34:46;21.38;;;14.43;;
75216;SDS011;63800;51.972;5.682;2023-07-13T08:37:13;19.48;;;11.95;;
75216;SDS011;63800;51.972;5.682;2023-07-13T08:39:39;20.02;;;12.75;;
75216;SDS011;63800;51.972;5.682;2023-07-13T08:42:46;17.90;;;12.15;;
75216;SDS011;63800;51.972;5.682;2023-07-13T08:44:57;17.35;;;11.73;;
75216;SDS011;63800;51.972;5.682;2023-07-13T08:47:26;17.95;;;12.25;;
75216;SDS011;63800;51.972;5.682;2023-07-13T08:49:55;16.20;;;9.13;;
75216;SDS011;63800;51.972;5.682;2023-07-13T08:52:32;19.15;;;9.85;;
75216;SDS011;63800;51.972;5.682;2023-07-13T08:55:05;17.15;;;9.40;;
75216;SDS011;63800;51.972;5.682;2023-07-13T08:57:38;15.15;;;9.52;;
75216;SDS011;63800;51.972;5.682;2023-07-13T09:00:08;12.15;;;7.97;;
75216;SDS011;63800;51.972;5.682;2023-07-13T09:02:41;10.73;;;7.90;;
75216;SDS011;63800;51.972;5.682;2023-07-13T09:05:14;16.90;;;8.85;;
75216;SDS011;63800;51.972;5.682;2023-07-13T09:10:28;12.50;;;7.47;;
75216;SDS011;63800;51.972;5.682;2023-07-13T09:13:00;13.80;;;6.82;;
75216;SDS011;63800;51.972;5.682;2023-07-13T09:16:06;10.93;;;6.07;;
75216;SDS011;63800;51.972;5.682;2023-07-13T09:20:59;10.00;;;6.00;;
75216;SDS011;63800;51.972;5.682;2023-07-13T09:23:29;9.40;;;6.40;;
75216;SDS011;63800;51.972;5.682;2023-07-13T09:26:00;12.40;;;6.60;;
75216;SDS011;63800;51.972;5.682;2023-07-13T09:28:34;11.27;;;6.20;;
75216;SDS011;63800;51.972;5.682;2023-07-13T09:31:26;10.15;;;6.75;;
75216;SDS011;63800;51.972;5.682;2023-07-13T09:33:58;12.35;;;7.35;;
75216;SDS011;63800;51.972;5.682;2023-07-13T09:36:25;10.82;;;7.55;;
75216;SDS011;63800;51.972;5.682;2023-07-13T09:41:57;13.25;;;7.80;;
75216;SDS011;63800;51.972;5.682;2023-07-13T09:44:37;11.77;;;7.63;;
75216;SDS011;63800;51.972;5.682;2023-07-13T09:47:15;11.30;;;7.32;;
75216;SDS011;63800;51.972;5.682;2023-07-13T09:49:41;12.45;;;7.50;;
75216;SDS011;63800;51.972;5.682;2023-07-13T09:52:11;17.92;;;8.20;;
75216;SDS011;63800;51.972;5.682;2023-07-13T09:54:39;11.27;;;6.90;;
75216;SDS011;63800;51.972;5.682;2023-07-13T09:57:15;12.45;;;6.82;;
75216;SDS011;63800;51.972;5.682;2023-07-13T09:59:51;13.00;;;6.68;;
75216;SDS011;63800;51.972;5.682;2023-07-13T10:02:28;11.82;;;6.32;;
75216;SDS011;63800;51.972;5.682;2023-07-13T10:04:58;10.18;;;6.60;;
75216;SDS011;63800;51.972;5.682;2023-07-13T10:07:26;11.43;;;7.10;;
75216;SDS011;63800;51.972;5.682;2023-07-13T10:09:56;11.02;;;6.38;;
75216;SDS011;63800;51.972;5.682;2023-07-13T10:12:28;8.43;;;6.10;;
75216;SDS011;63800;51.972;5.682;2023-07-13T10:14:56;9.02;;;5.75;;
75216;SDS011;63800;51.972;5.682;2023-07-13T10:17:30;9.73;;;5.50;;
75216;SDS011;63800;51.972;5.682;2023-07-13T10:20:04;7.82;;;5.63;;
75216;SDS011;63800;51.972;5.682;2023-07-13T10:22:52;10.45;;;6.35;;
75216;SDS011;63800;51.972;5.682;2023-07-13T10:25:24;11.27;;;6.38;;
75216;SDS011;63800;51.972;5.682;2023-07-13T10:27:52;10.20;;;6.70;;
75216;SDS011;63800;51.972;5.682;2023-07-13T10:30:25;11.05;;;7.25;;
75216;SDS011;63800;51.972;5.682;2023-07-13T10:35:23;8.25;;;6.95;;
75216;SDS011;63800;51.972;5.682;2023-07-13T10:37:51;11.40;;;6.20;;
75216;SDS011;63800;51.972;5.682;2023-07-13T10:40:25;9.70;;;5.60;;
75216;SDS011;63800;51.972;5.682;2023-07-13T10:42:55;8.93;;;5.38;;
75216;SDS011;63800;51.972;5.682;2023-07-13T10:45:22;7.53;;;4.60;;
75216;SDS011;63800;51.972;5.682;2023-07-13T10:47:50;8.20;;;4.45;;
75216;SDS011;63800;51.972;5.682;2023-07-13T10:50:26;7.75;;;3.95;;
75216;SDS011;63800;51.972;5.682;2023-07-13T10:52:56;6.72;;;3.42;;
75216;SDS011;63800;51.972;5.682;2023-07-13T10:55:38;7.90;;;4.43;;
75216;SDS011;63800;51.972;5.682;2023-07-13T10:58:20;7.10;;;3.58;;
75216;SDS011;63800;51.972;5.682;2023-07-13T11:00:56;6.30;;;3.42;;
75216;SDS011;63800;51.972;5.682;2023-07-13T11:03:22;6.47;;;3.70;;
75216;SDS011;63800;51.972;5.682;2023-07-13T11:05:48;6.80;;;4.00;;
75216;SDS011;63800;51.972;5.682;2023-07-13T11:10:58;4.43;;;3.00;;
75216;SDS011;63800;51.972;5.682;2023-07-13T11:16:34;5.05;;;3.10;;
75216;SDS011;63800;51.972;5.682;2023-07-13T11:36:00;6.13;;;3.80;;
75216;SDS011;63800;51.972;5.682;2023-07-13T11:38:33;4.75;;;3.00;;
75216;SDS011;63800;51.972;5.682;2023-07-13T11:41:03;5.07;;;3.45;;
75216;SDS011;63800;51.972;5.682;2023-07-13T11:43:32;7.45;;;3.55;;
75216;SDS011;63800;51.972;5.682;2023-07-13T11:46:01;6.90;;;3.60;;
75216;SDS011;63800;51.972;5.682;2023-07-13T11:48:41;8.60;;;3.90;;
75216;SDS011;63800;51.972;5.682;2023-07-13T11:51:12;7.70;;;4.13;;
75216;SDS011;63800;51.972;5.682;2023-07-13T11:53:46;7.03;;;4.07;;
75216;SDS011;63800;51.972;5.682;2023-07-13T11:56:13;9.45;;;4.25;;
75216;SDS011;63800;51.972;5.682;2023-07-13T11:58:39;5.28;;;3.28;;
75216;SDS011;63800;51.972;5.682;2023-07-13T12:01:06;4.72;;;2.90;;
75216;SDS011;63800;51.972;5.682;2023-07-13T12:03:39;4.97;;;3.03;;
75216;SDS011;63800;51.972;5.682;2023-07-13T12:06:06;7.28;;;3.60;;
75216;SDS011;63800;51.972;5.682;2023-07-13T12:08:51;6.18;;;2.83;;
75216;SDS011;63800;51.972;5.682;2023-07-13T12:11:17;4.75;;;2.70;;
75216;SDS011;63800;51.972;5.682;2023-07-13T12:13:44;5.63;;;3.35;;
75216;SDS011;63800;51.972;5.682;2023-07-13T12:16:14;6.57;;;3.55;;
75216;SDS011;63800;51.972;5.682;2023-07-13T12:18:49;7.70;;;3.22;;
75216;SDS011;63800;51.972;5.682;2023-07-13T12:21:18;4.68;;;3.13;;
75216;SDS011;63800;51.972;5.682;2023-07-13T12:23:47;6.80;;;3.50;;
75216;SDS011;63800;51.972;5.682;2023-07-13T12:26:14;7.05;;;3.33;;
75216;SDS011;63800;51.972;5.682;2023-07-13T12:28:49;8.93;;;3.20;;
75216;SDS011;63800;51.972;5.682;2023-07-13T12:31:35;5.40;;;3.03;;
75216;SDS011;63800;51.972;5.682;2023-07-13T12:34:10;4.85;;;3.15;;
75216;SDS011;63800;51.972;5.682;2023-07-13T12:36:49;6.15;;;3.35;;
75216;SDS011;63800;51.972;5.682;2023-07-13T12:39:18;5.28;;;3.10;;
75216;SDS011;63800;51.972;5.682;2023-07-13T12:41:48;3.97;;;2.60;;
75216;SDS011;63800;51.972;5.682;2023-07-13T12:44:16;4.38;;;2.70;;
75216;SDS011;63800;51.972;5.682;2023-07-13T12:46:58;5.13;;;2.60;;
75216;SDS011;63800;51.972;5.682;2023-07-13T12:49:29;3.20;;;2.80;;
75216;SDS011;63800;51.972;5.682;2023-07-13T12:52:00;4.85;;;2.72;;
75216;SDS011;63800;51.972;5.682;2023-07-13T12:54:28;4.63;;;2.88;;
75216;SDS011;63800;51.972;5.682;2023-07-13T12:56:55;4.82;;;3.10;;
75216;SDS011;63800;51.972;5.682;2023-07-13T12:59:23;6.13;;;3.40;;
75216;SDS011;63800;51.972;5.682;2023-07-13T13:01:53;5.90;;;3.10;;
75216;SDS011;63800;51.972;5.682;2023-07-13T13:04:19;4.85;;;2.92;;
75216;SDS011;63800;51.972;5.682;2023-07-13T13:06:46;5.60;;;3.08;;
75216;SDS011;63800;51.972;5.682;2023-07-13T13:09:13;5.43;;;2.72;;
75216;SDS011;63800;51.972;5.682;2023-07-13T13:11:41;6.10;;;3.15;;
75216;SDS011;63800;51.972;5.682;2023-07-13T13:14:07;3.42;;;2.58;;
75216;SDS011;63800;51.972;5.682;2023-07-13T13:16:34;5.10;;;2.83;;
75216;SDS011;63800;51.972;5.682;2023-07-13T13:19:09;3.38;;;2.40;;
75216;SDS011;63800;51.972;5.682;2023-07-13T13:21:39;4.63;;;2.58;;
75216;SDS011;63800;51.972;5.682;2023-07-13T13:24:10;3.17;;;2.50;;
75216;SDS011;63800;51.972;5.682;2023-07-13T13:26:40;5.20;;;2.63;;
75216;SDS011;63800;51.972;5.682;2023-07-13T13:29:13;3.45;;;2.65;;
75216;SDS011;63800;51.972;5.682;2023-07-13T13:31:41;3.92;;;2.65;;
75216;SDS011;63800;51.972;5.682;2023-07-13T13:34:08;4.60;;;2.70;;
75216;SDS011;63800;51.972;5.682;2023-07-13T13:36:38;4.53;;;2.75;;
75216;SDS011;63800;51.972;5.682;2023-07-13T13:39:05;4.85;;;2.85;;
75216;SDS011;63800;51.972;5.682;2023-07-13T13:41:45;4.97;;;3.30;;
75216;SDS011;63800;51.972;5.682;2023-07-13T13:44:10;6.40;;;2.80;;
75216;SDS011;63800;51.972;5.682;2023-07-13T13:46:37;6.15;;;3.00;;
75216;SDS011;63800;51.972;5.682;2023-07-13T13:49:02;4.60;;;3.17;;
75216;SDS011;63800;51.972;5.682;2023-07-13T13:51:28;4.50;;;2.90;;
75216;SDS011;63800;51.972;5.682;2023-07-13T13:53:54;5.07;;;2.83;;
75216;SDS011;63800;51.972;5.682;2023-07-13T13:56:20;4.22;;;2.70;;
75216;SDS011;63800;51.972;5.682;2023-07-13T13:58:46;3.88;;;3.03;;
75216;SDS011;63800;51.972;5.682;2023-07-13T14:01:13;4.55;;;3.13;;
75216;SDS011;63800;51.972;5.682;2023-07-13T14:03:41;5.63;;;3.05;;
75216;SDS011;63800;51.972;5.682;2023-07-13T14:06:07;4.03;;;3.00;;
75216;SDS011;63800;51.972;5.682;2023-07-13T14:08:37;4.32;;;2.80;;
75216;SDS011;63800;51.972;5.682;2023-07-13T14:11:02;3.75;;;2.90;;
75216;SDS011;63800;51.972;5.682;2023-07-13T14:13:30;3.35;;;2.58;;
75216;SDS011;63800;51.972;5.682;2023-07-13T14:16:00;3.88;;;2.40;;
75216;SDS011;63800;51.972;5.682;2023-07-13T14:18:26;4.75;;;2.80;;
75216;SDS011;63800;51.972;5.682;2023-07-13T14:20:52;4.22;;;2.40;;
75216;SDS011;63800;51.972;5.682;2023-07-13T14:23:18;3.97;;;2.33;;
75216;SDS011;63800;51.972;5.682;2023-07-13T14:25:44;4.30;;;2.50;;
75216;SDS011;63800;51.972;5.682;2023-07-13T14:28:21;3.42;;;2.58;;
75216;SDS011;63800;51.972;5.682;2023-07-13T14:30:49;4.88;;;3.20;;
75216;SDS011;63800;51.972;5.682;2023-07-13T14:33:15;4.22;;;2.90;;
75216;SDS011;63800;51.972;5.682;2023-07-13T14:35:41;4.20;;;2.65;;
75216;SDS011;63800;51.972;5.682;2023-07-13T14:38:08;5.18;;;3.05;;
75216;SDS011;63800;51.972;5.682;2023-07-13T14:40:36;3.70;;;2.53;;
75216;SDS011;63800;51.972;5.682;2023-07-13T14:43:02;4.40;;;3.00;;
75216;SDS011;63800;51.972;5.682;2023-07-13T14:45:28;4.85;;;3.22;;
75216;SDS011;63800;51.972;5.682;2023-07-13T14:47:56;5.47;;;3.10;;
75216;SDS011;63800;51.972;5.682;2023-07-13T14:50:28;3.70;;;2.88;;
75216;SDS011;63800;51.972;5.682;2023-07-13T14:52:57;4.38;;;3.00;;
75216;SDS011;63800;51.972;5.682;2023-07-13T14:55:23;4.38;;;2.85;;
75216;SDS011;63800;51.972;5.682;2023-07-13T14:57:51;5.03;;;2.80;;
75216;SDS011;63800;51.972;5.682;2023-07-13T15:00:20;3.20;;;2.85;;
75216;SDS011;63800;51.972;5.682;2023-07-13T15:02:48;4.68;;;3.20;;
75216;SDS011;63800;51.972;5.682;2023-07-13T15:05:23;4.90;;;2.88;;
75216;SDS011;63800;51.972;5.682;2023-07-13T15:07:51;4.13;;;2.65;;
75216;SDS011;63800;51.972;5.682;2023-07-13T15:10:21;4.00;;;2.63;;
75216;SDS011;63800;51.972;5.682;2023-07-13T15:12:56;4.07;;;2.63;;
75216;SDS011;63800;51.972;5.682;2023-07-13T15:15:24;5.72;;;2.70;;
75216;SDS011;63800;51.972;5.682;2023-07-13T15:17:49;4.90;;;2.92;;
75216;SDS011;63800;51.972;5.682;2023-07-13T15:22:57;3.75;;;2.58;;